sensor_id;sensor_type;location;lat;lon;timestamp;P1;durP1;ratioP1;P2;durP2;ratioP2
3991;SDS011;2010;48.194;16.394;2023-02-15T00:00:49;33.17;;;20.97;;
3991;SDS011;2010;48.194;16.394;2023-02-15T00:03:22;32.03;;;20.27;;
3991;SDS011;2010;48.194;16.394;2023-02-15T00:05:52;31.17;;;19.70;;
3991;SDS011;2010;48.194;16.394;2023-02-15T00:08:34;33.60;;;20.60;;
3991;SDS011;2010;48.194;16.394;2023-02-15T00:11:07;29.30;;;19.73;;
3991;SDS011;2010;48.194;16.394;2023-02-15T00:13:38;28.70;;;20.80;;
3991;SDS011;2010;48.194;16.394;2023-02-15T00:16:18;29.73;;;19.97;;
3991;SDS011;2010;48.194;16.394;2023-02-15T00:18:47;31.30;;;20.70;;
3991;SDS011;2010;48.194;16.394;2023-02-15T00:21:16;26.77;;;19.77;;
3991;SDS011;2010;48.194;16.394;2023-02-15T00:23:52;36.23;;;22.30;;
3991;SDS011;2010;48.194;16.394;2023-02-15T00:26:24;32.57;;;20.03;;
3991;SDS011;2010;48.194;16.394;2023-02-15T00:28:53;33.73;;;22.20;;
3991;SDS011;2010;48.194;16.394;2023-02-15T00:31:25;29.80;;;19.17;;
3991;SDS011;2010;48.194;16.394;2023-02-15T00:34:01;31.17;;;21.20;;
3991;SDS011;2010;48.194;16.394;2023-02-15T00:36:35;31.77;;;21.73;;
3991;SDS011;2010;48.194;16.394;2023-02-15T00:39:19;31.90;;;20.67;;
3991;SDS011;2010;48.194;16.394;2023-02-15T00:41:48;30.47;;;20.87;;
3991;SDS011;2010;48.194;16.394;2023-02-15T00:44:26;30.40;;;20.47;;
3991;SDS011;2010;48.194;16.394;2023-02-15T00:47:04;30.50;;;19.30;;
3991;SDS011;2010;48.194;16.394;2023-02-15T00:49:34;37.60;;;21.27;;
3991;SDS011;2010;48.194;16.394;2023-02-15T00:52:06;34.00;;;20.97;;
3991;SDS011;2010;48.194;16.394;2023-02-15T00:54:39;33.87;;;21.77;;
3991;SDS011;2010;48.194;16.394;2023-02-15T00:57:18;34.50;;;21.67;;
3991;SDS011;2010;48.194;16.394;2023-02-15T00:59:48;34.47;;;23.63;;
3991;SDS011;2010;48.194;16.394;2023-02-15T01:02:21;31.00;;;20.37;;
3991;SDS011;2010;48.194;16.394;2023-02-15T01:04:49;38.43;;;22.70;;
3991;SDS011;2010;48.194;16.394;2023-02-15T01:07:22;31.13;;;20.67;;
3991;SDS011;2010;48.194;16.394;2023-02-15T01:09:55;30.20;;;19.90;;
3991;SDS011;2010;48.194;16.394;2023-02-15T01:12:24;31.53;;;19.80;;
3991;SDS011;2010;48.194;16.394;2023-02-15T01:15:03;37.07;;;22.53;;
3991;SDS011;2010;48.194;16.394;2023-02-15T01:17:40;40.43;;;22.47;;
3991;SDS011;2010;48.194;16.394;2023-02-15T01:20:23;32.53;;;22.80;;
3991;SDS011;2010;48.194;16.394;2023-02-15T01:22:54;38.87;;;23.03;;
3991;SDS011;2010;48.194;16.394;2023-02-15T01:25:28;36.60;;;22.20;;
3991;SDS011;2010;48.194;16.394;2023-02-15T01:28:01;31.50;;;21.30;;
3991;SDS011;2010;48.194;16.394;2023-02-15T01:30:31;35.67;;;21.13;;
3991;SDS011;2010;48.194;16.394;2023-02-15T01:33:00;35.40;;;21.50;;
3991;SDS011;2010;48.194;16.394;2023-02-15T01:35:31;34.87;;;22.10;;
3991;SDS011;2010;48.194;16.394;2023-02-15T01:38:05;36.53;;;22.30;;
3991;SDS011;2010;48.194;16.394;2023-02-15T01:40:44;37.33;;;23.50;;
3991;SDS011;2010;48.194;16.394;2023-02-15T01:43:16;38.03;;;22.70;;
3991;SDS011;2010;48.194;16.394;2023-02-15T01:45:48;41.33;;;24.40;;
3991;SDS011;2010;48.194;16.394;2023-02-15T01:48:26;34.40;;;23.83;;
3991;SDS011;2010;48.194;16.394;2023-02-15T01:51:03;37.23;;;23.90;;
3991;SDS011;2010;48.194;16.394;2023-02-15T01:53:36;37.07;;;23.33;;
3991;SDS011;2010;48.194;16.394;2023-02-15T01:56:12;35.93;;;23.17;;
3991;SDS011;2010;48.194;16.394;2023-02-15T01:58:51;35.00;;;22.20;;
3991;SDS011;2010;48.194;16.394;2023-02-15T02:01:28;38.10;;;22.33;;
3991;SDS011;2010;48.194;16.394;2023-02-15T02:03:59;35.77;;;23.30;;
3991;SDS011;2010;48.194;16.394;2023-02-15T02:06:31;40.40;;;23.33;;
3991;SDS011;2010;48.194;16.394;2023-02-15T02:09:09;34.00;;;21.87;;
3991;SDS011;2010;48.194;16.394;2023-02-15T02:11:54;37.47;;;23.73;;
3991;SDS011;2010;48.194;16.394;2023-02-15T02:14:22;36.40;;;21.33;;
3991;SDS011;2010;48.194;16.394;2023-02-15T02:16:57;35.13;;;23.10;;
3991;SDS011;2010;48.194;16.394;2023-02-15T02:19:48;37.57;;;23.00;;
3991;SDS011;2010;48.194;16.394;2023-02-15T02:35:32;40.13;;;22.87;;
3991;SDS011;2010;48.194;16.394;2023-02-15T02:38:16;41.23;;;22.43;;
3991;SDS011;2010;48.194;16.394;2023-02-15T02:40:58;34.80;;;23.07;;
3991;SDS011;2010;48.194;16.394;2023-02-15T02:43:44;38.17;;;23.63;;
3991;SDS011;2010;48.194;16.394;2023-02-15T02:46:17;36.73;;;22.80;;
3991;SDS011;2010;48.194;16.394;2023-02-15T02:48:48;35.87;;;22.43;;
3991;SDS011;2010;48.194;16.394;2023-02-15T02:51:20;39.03;;;24.53;;
3991;SDS011;2010;48.194;16.394;2023-02-15T02:53:53;42.40;;;23.40;;
3991;SDS011;2010;48.194;16.394;2023-02-15T02:56:26;38.93;;;23.93;;
3991;SDS011;2010;48.194;16.394;2023-02-15T02:59:01;39.33;;;22.33;;
3991;SDS011;2010;48.194;16.394;2023-02-15T03:01:37;42.40;;;24.30;;
3991;SDS011;2010;48.194;16.394;2023-02-15T03:04:17;40.83;;;24.57;;
3991;SDS011;2010;48.194;16.394;2023-02-15T03:06:53;37.87;;;22.53;;
3991;SDS011;2010;48.194;16.394;2023-02-15T03:09:31;33.13;;;20.87;;
3991;SDS011;2010;48.194;16.394;2023-02-15T03:12:13;37.50;;;23.53;;
3991;SDS011;2010;48.194;16.394;2023-02-15T03:14:51;38.23;;;23.00;;
3991;SDS011;2010;48.194;16.394;2023-02-15T03:17:22;36.17;;;22.40;;
3991;SDS011;2010;48.194;16.394;2023-02-15T03:19:51;40.87;;;23.17;;
3991;SDS011;2010;48.194;16.394;2023-02-15T03:22:25;39.57;;;22.77;;
3991;SDS011;2010;48.194;16.394;2023-02-15T03:25:04;37.97;;;22.80;;
3991;SDS011;2010;48.194;16.394;2023-02-15T03:27:41;38.87;;;23.47;;
3991;SDS011;2010;48.194;16.394;2023-02-15T03:30:13;39.00;;;24.10;;
3991;SDS011;2010;48.194;16.394;2023-02-15T03:32:45;35.87;;;23.67;;
3991;SDS011;2010;48.194;16.394;2023-02-15T03:35:16;33.80;;;22.03;;
3991;SDS011;2010;48.194;16.394;2023-02-15T03:38:00;37.03;;;21.90;;
3991;SDS011;2010;48.194;16.394;2023-02-15T03:40:33;36.70;;;23.20;;
3991;SDS011;2010;48.194;16.394;2023-02-15T03:43:23;35.43;;;21.80;;
3991;SDS011;2010;48.194;16.394;2023-02-15T03:46:01;35.47;;;22.13;;
3991;SDS011;2010;48.194;16.394;2023-02-15T03:48:46;37.77;;;21.70;;
3991;SDS011;2010;48.194;16.394;2023-02-15T03:51:19;39.83;;;24.23;;
3991;SDS011;2010;48.194;16.394;2023-02-15T03:57:10;38.70;;;23.70;;
3991;SDS011;2010;48.194;16.394;2023-02-15T04:00:02;33.87;;;21.23;;
3991;SDS011;2010;48.194;16.394;2023-02-15T04:02:55;36.77;;;22.80;;
3991;SDS011;2010;48.194;16.394;2023-02-15T04:05:33;35.90;;;20.70;;
3991;SDS011;2010;48.194;16.394;2023-02-15T04:08:03;37.00;;;23.60;;
3991;SDS011;2010;48.194;16.394;2023-02-15T04:10:41;36.77;;;22.33;;
3991;SDS011;2010;48.194;16.394;2023-02-15T04:13:29;37.03;;;22.50;;
3991;SDS011;2010;48.194;16.394;2023-02-15T04:16:02;37.80;;;22.60;;
3991;SDS011;2010;48.194;16.394;2023-02-15T04:18:34;37.17;;;23.33;;
3991;SDS011;2010;48.194;16.394;2023-02-15T04:21:27;37.70;;;22.20;;
3991;SDS011;2010;48.194;16.394;2023-02-15T04:24:15;41.67;;;23.47;;
3991;SDS011;2010;48.194;16.394;2023-02-15T04:27:05;36.97;;;22.50;;
3991;SDS011;2010;48.194;16.394;2023-02-15T04:29:35;41.50;;;24.20;;
3991;SDS011;2010;48.194;16.394;2023-02-15T04:32:04;35.43;;;22.20;;
3991;SDS011;2010;48.194;16.394;2023-02-15T04:34:38;40.03;;;22.30;;
3991;SDS011;2010;48.194;16.394;2023-02-15T04:37:07;44.03;;;24.40;;
3991;SDS011;2010;48.194;16.394;2023-02-15T04:39:39;36.00;;;22.67;;
3991;SDS011;2010;48.194;16.394;2023-02-15T04:42:12;42.60;;;23.87;;
3991;SDS011;2010;48.194;16.394;2023-02-15T04:44:43;39.90;;;23.23;;
3991;SDS011;2010;48.194;16.394;2023-02-15T04:47:15;36.97;;;23.40;;
3991;SDS011;2010;48.194;16.394;2023-02-15T04:50:00;41.83;;;25.40;;
3991;SDS011;2010;48.194;16.394;2023-02-15T04:52:32;37.17;;;24.63;;
3991;SDS011;2010;48.194;16.394;2023-02-15T04:55:05;41.83;;;24.43;;
3991;SDS011;2010;48.194;16.394;2023-02-15T04:57:41;36.80;;;22.50;;
3991;SDS011;2010;48.194;16.394;2023-02-15T05:00:13;38.40;;;24.37;;
3991;SDS011;2010;48.194;16.394;2023-02-15T05:02:41;44.20;;;25.57;;
3991;SDS011;2010;48.194;16.394;2023-02-15T05:05:13;38.83;;;24.30;;
3991;SDS011;2010;48.194;16.394;2023-02-15T05:07:42;41.73;;;25.80;;
3991;SDS011;2010;48.194;16.394;2023-02-15T05:10:12;45.63;;;25.13;;
3991;SDS011;2010;48.194;16.394;2023-02-15T05:12:44;39.50;;;23.80;;
3991;SDS011;2010;48.194;16.394;2023-02-15T05:15:26;38.37;;;23.93;;
3991;SDS011;2010;48.194;16.394;2023-02-15T05:18:10;40.10;;;24.27;;
3991;SDS011;2010;48.194;16.394;2023-02-15T05:20:40;42.13;;;26.00;;
3991;SDS011;2010;48.194;16.394;2023-02-15T05:23:08;40.53;;;23.70;;
3991;SDS011;2010;48.194;16.394;2023-02-15T05:25:38;43.93;;;25.83;;
3991;SDS011;2010;48.194;16.394;2023-02-15T05:28:33;43.50;;;24.73;;
3991;SDS011;2010;48.194;16.394;2023-02-15T05:31:11;43.77;;;24.93;;
3991;SDS011;2010;48.194;16.394;2023-02-15T05:33:42;41.47;;;24.33;;
3991;SDS011;2010;48.194;16.394;2023-02-15T05:36:16;43.73;;;26.40;;
3991;SDS011;2010;48.194;16.394;2023-02-15T05:38:59;45.20;;;26.20;;
3991;SDS011;2010;48.194;16.394;2023-02-15T05:41:39;44.73;;;24.57;;
3991;SDS011;2010;48.194;16.394;2023-02-15T05:44:31;42.03;;;24.50;;
3991;SDS011;2010;48.194;16.394;2023-02-15T05:47:02;41.50;;;26.00;;
3991;SDS011;2010;48.194;16.394;2023-02-15T05:49:34;41.50;;;25.10;;
3991;SDS011;2010;48.194;16.394;2023-02-15T05:52:06;44.10;;;26.17;;
3991;SDS011;2010;48.194;16.394;2023-02-15T05:54:42;45.70;;;27.23;;
3991;SDS011;2010;48.194;16.394;2023-02-15T05:57:12;46.27;;;27.17;;
3991;SDS011;2010;48.194;16.394;2023-02-15T05:59:54;41.57;;;25.80;;
3991;SDS011;2010;48.194;16.394;2023-02-15T06:02:26;40.90;;;24.63;;
3991;SDS011;2010;48.194;16.394;2023-02-15T06:05:02;42.57;;;23.87;;
3991;SDS011;2010;48.194;16.394;2023-02-15T06:07:32;42.00;;;25.20;;
3991;SDS011;2010;48.194;16.394;2023-02-15T06:10:12;38.83;;;24.30;;
3991;SDS011;2010;48.194;16.394;2023-02-15T06:12:43;39.67;;;24.30;;
3991;SDS011;2010;48.194;16.394;2023-02-15T06:15:22;40.63;;;23.93;;
3991;SDS011;2010;48.194;16.394;2023-02-15T06:17:52;42.60;;;25.53;;
3991;SDS011;2010;48.194;16.394;2023-02-15T06:20:21;40.43;;;23.97;;
3991;SDS011;2010;48.194;16.394;2023-02-15T06:22:52;41.50;;;23.50;;
3991;SDS011;2010;48.194;16.394;2023-02-15T06:25:24;44.40;;;24.47;;
3991;SDS011;2010;48.194;16.394;2023-02-15T06:27:55;38.00;;;23.30;;
3991;SDS011;2010;48.194;16.394;2023-02-15T06:30:33;39.37;;;23.10;;
3991;SDS011;2010;48.194;16.394;2023-02-15T06:33:03;39.80;;;23.03;;
3991;SDS011;2010;48.194;16.394;2023-02-15T06:35:42;38.57;;;23.30;;
3991;SDS011;2010;48.194;16.394;2023-02-15T06:38:14;37.73;;;23.43;;
3991;SDS011;2010;48.194;16.394;2023-02-15T06:40:42;41.90;;;23.27;;
3991;SDS011;2010;48.194;16.394;2023-02-15T06:43:13;39.13;;;23.03;;
3991;SDS011;2010;48.194;16.394;2023-02-15T06:45:50;39.10;;;24.73;;
3991;SDS011;2010;48.194;16.394;2023-02-15T06:48:37;41.60;;;25.27;;
3991;SDS011;2010;48.194;16.394;2023-02-15T06:51:07;37.37;;;23.10;;
3991;SDS011;2010;48.194;16.394;2023-02-15T06:53:42;36.63;;;22.57;;
3991;SDS011;2010;48.194;16.394;2023-02-15T06:56:10;44.07;;;23.60;;
3991;SDS011;2010;48.194;16.394;2023-02-15T06:58:50;39.27;;;22.57;;
3991;SDS011;2010;48.194;16.394;2023-02-15T07:01:26;42.63;;;23.90;;
3991;SDS011;2010;48.194;16.394;2023-02-15T07:04:07;41.43;;;22.37;;
3991;SDS011;2010;48.194;16.394;2023-02-15T07:06:38;35.33;;;22.07;;
3991;SDS011;2010;48.194;16.394;2023-02-15T07:09:08;37.10;;;21.53;;
3991;SDS011;2010;48.194;16.394;2023-02-15T07:11:39;38.57;;;21.93;;
3991;SDS011;2010;48.194;16.394;2023-02-15T07:14:29;39.10;;;22.00;;
3991;SDS011;2010;48.194;16.394;2023-02-15T07:17:15;34.20;;;21.03;;
3991;SDS011;2010;48.194;16.394;2023-02-15T07:20:03;38.00;;;21.90;;
3991;SDS011;2010;48.194;16.394;2023-02-15T07:22:43;32.50;;;20.07;;
3991;SDS011;2010;48.194;16.394;2023-02-15T07:25:14;38.60;;;21.30;;
3991;SDS011;2010;48.194;16.394;2023-02-15T07:27:55;36.70;;;21.80;;
3991;SDS011;2010;48.194;16.394;2023-02-15T07:30:27;33.47;;;22.47;;
3991;SDS011;2010;48.194;16.394;2023-02-15T07:33:05;41.93;;;24.50;;
3991;SDS011;2010;48.194;16.394;2023-02-15T07:35:54;49.77;;;26.47;;
3991;SDS011;2010;48.194;16.394;2023-02-15T07:38:33;40.33;;;25.13;;
3991;SDS011;2010;48.194;16.394;2023-02-15T07:41:03;40.87;;;22.77;;
3991;SDS011;2010;48.194;16.394;2023-02-15T07:43:40;36.13;;;21.33;;
3991;SDS011;2010;48.194;16.394;2023-02-15T07:46:10;37.00;;;21.27;;
3991;SDS011;2010;48.194;16.394;2023-02-15T07:48:56;40.50;;;21.63;;
3991;SDS011;2010;48.194;16.394;2023-02-15T07:51:32;39.33;;;20.80;;
3991;SDS011;2010;48.194;16.394;2023-02-15T07:54:04;31.77;;;20.50;;
3991;SDS011;2010;48.194;16.394;2023-02-15T07:56:37;38.10;;;20.73;;
3991;SDS011;2010;48.194;16.394;2023-02-15T07:59:10;35.03;;;22.20;;
3991;SDS011;2010;48.194;16.394;2023-02-15T08:01:43;35.63;;;22.83;;
3991;SDS011;2010;48.194;16.394;2023-02-15T08:04:13;34.40;;;20.67;;
3991;SDS011;2010;48.194;16.394;2023-02-15T08:06:46;34.70;;;21.10;;
3991;SDS011;2010;48.194;16.394;2023-02-15T08:09:14;32.90;;;19.90;;
3991;SDS011;2010;48.194;16.394;2023-02-15T08:11:44;29.97;;;20.43;;
3991;SDS011;2010;48.194;16.394;2023-02-15T08:14:14;34.60;;;21.47;;
3991;SDS011;2010;48.194;16.394;2023-02-15T08:16:45;35.40;;;21.20;;
3991;SDS011;2010;48.194;16.394;2023-02-15T08:19:19;33.50;;;20.13;;
3991;SDS011;2010;48.194;16.394;2023-02-15T08:21:52;35.10;;;21.10;;
3991;SDS011;2010;48.194;16.394;2023-02-15T08:24:27;32.43;;;20.90;;
3991;SDS011;2010;48.194;16.394;2023-02-15T08:26:58;36.33;;;21.63;;
3991;SDS011;2010;48.194;16.394;2023-02-15T08:29:33;35.17;;;21.80;;
3991;SDS011;2010;48.194;16.394;2023-02-15T08:32:05;33.67;;;20.60;;
3991;SDS011;2010;48.194;16.394;2023-02-15T08:34:39;32.27;;;20.00;;
3991;SDS011;2010;48.194;16.394;2023-02-15T08:37:13;34.97;;;21.17;;
3991;SDS011;2010;48.194;16.394;2023-02-15T08:39:44;40.90;;;22.53;;
3991;SDS011;2010;48.194;16.394;2023-02-15T08:42:16;36.80;;;21.30;;
3991;SDS011;2010;48.194;16.394;2023-02-15T08:44:54;37.53;;;21.37;;
3991;SDS011;2010;48.194;16.394;2023-02-15T08:47:28;34.63;;;20.83;;
3991;SDS011;2010;48.194;16.394;2023-02-15T08:50:06;34.23;;;20.50;;
3991;SDS011;2010;48.194;16.394;2023-02-15T08:52:36;35.13;;;21.53;;
3991;SDS011;2010;48.194;16.394;2023-02-15T08:55:08;32.83;;;20.40;;
3991;SDS011;2010;48.194;16.394;2023-02-15T08:57:49;42.63;;;22.87;;
3991;SDS011;2010;48.194;16.394;2023-02-15T09:00:26;36.40;;;20.97;;
3991;SDS011;2010;48.194;16.394;2023-02-15T09:03:00;30.87;;;19.97;;
3991;SDS011;2010;48.194;16.394;2023-02-15T09:05:33;37.00;;;21.50;;
3991;SDS011;2010;48.194;16.394;2023-02-15T09:08:04;31.60;;;19.93;;
3991;SDS011;2010;48.194;16.394;2023-02-15T09:10:41;34.70;;;21.17;;
3991;SDS011;2010;48.194;16.394;2023-02-15T09:13:12;35.23;;;21.50;;
3991;SDS011;2010;48.194;16.394;2023-02-15T09:15:40;37.87;;;22.20;;
3991;SDS011;2010;48.194;16.394;2023-02-15T09:18:11;37.10;;;20.87;;
3991;SDS011;2010;48.194;16.394;2023-02-15T09:20:54;40.43;;;21.73;;
3991;SDS011;2010;48.194;16.394;2023-02-15T09:23:24;38.93;;;22.53;;
3991;SDS011;2010;48.194;16.394;2023-02-15T09:25:53;36.87;;;21.30;;
3991;SDS011;2010;48.194;16.394;2023-02-15T09:28:25;33.00;;;21.07;;
3991;SDS011;2010;48.194;16.394;2023-02-15T09:31:11;35.77;;;22.03;;
3991;SDS011;2010;48.194;16.394;2023-02-15T09:33:47;33.23;;;21.77;;
3991;SDS011;2010;48.194;16.394;2023-02-15T09:36:22;35.13;;;21.93;;
3991;SDS011;2010;48.194;16.394;2023-02-15T09:38:56;39.80;;;21.63;;
3991;SDS011;2010;48.194;16.394;2023-02-15T09:44:42;34.53;;;20.97;;
3991;SDS011;2010;48.194;16.394;2023-02-15T09:47:34;34.57;;;20.87;;
3991;SDS011;2010;48.194;16.394;2023-02-15T09:50:11;31.90;;;20.93;;
3991;SDS011;2010;48.194;16.394;2023-02-15T09:52:59;43.53;;;23.40;;
3991;SDS011;2010;48.194;16.394;2023-02-15T09:55:45;35.70;;;20.90;;
3991;SDS011;2010;48.194;16.394;2023-02-15T09:58:22;35.33;;;22.70;;
3991;SDS011;2010;48.194;16.394;2023-02-15T10:00:57;35.40;;;21.30;;
3991;SDS011;2010;48.194;16.394;2023-02-15T10:03:44;38.77;;;23.47;;
3991;SDS011;2010;48.194;16.394;2023-02-15T10:06:34;38.17;;;23.37;;
3991;SDS011;2010;48.194;16.394;2023-02-15T10:09:16;35.77;;;22.00;;
3991;SDS011;2010;48.194;16.394;2023-02-15T10:12:09;36.50;;;23.07;;
3991;SDS011;2010;48.194;16.394;2023-02-15T10:14:58;35.97;;;20.70;;
3991;SDS011;2010;48.194;16.394;2023-02-15T10:17:55;34.43;;;20.13;;
3991;SDS011;2010;48.194;16.394;2023-02-15T10:20:47;32.50;;;21.37;;
3991;SDS011;2010;48.194;16.394;2023-02-15T10:23:38;35.80;;;21.40;;
3991;SDS011;2010;48.194;16.394;2023-02-15T10:26:24;36.30;;;22.60;;
3991;SDS011;2010;48.194;16.394;2023-02-15T10:29:00;36.67;;;21.70;;
3991;SDS011;2010;48.194;16.394;2023-02-15T10:31:40;39.10;;;23.57;;
3991;SDS011;2010;48.194;16.394;2023-02-15T10:34:15;36.17;;;21.83;;
3991;SDS011;2010;48.194;16.394;2023-02-15T10:39:48;32.87;;;21.50;;
3991;SDS011;2010;48.194;16.394;2023-02-15T10:42:27;35.23;;;22.50;;
3991;SDS011;2010;48.194;16.394;2023-02-15T10:45:10;36.60;;;22.87;;
3991;SDS011;2010;48.194;16.394;2023-02-15T10:47:52;39.50;;;22.60;;
3991;SDS011;2010;48.194;16.394;2023-02-15T10:50:30;34.20;;;21.93;;
3991;SDS011;2010;48.194;16.394;2023-02-15T10:53:15;33.90;;;21.83;;
3991;SDS011;2010;48.194;16.394;2023-02-15T10:55:55;30.23;;;19.33;;
3991;SDS011;2010;48.194;16.394;2023-02-15T10:58:36;40.23;;;22.17;;
3991;SDS011;2010;48.194;16.394;2023-02-15T11:01:15;33.33;;;22.13;;
3991;SDS011;2010;48.194;16.394;2023-02-15T11:04:01;33.00;;;20.10;;
3991;SDS011;2010;48.194;16.394;2023-02-15T11:07:07;34.07;;;21.43;;
3991;SDS011;2010;48.194;16.394;2023-02-15T11:09:42;35.03;;;21.80;;
3991;SDS011;2010;48.194;16.394;2023-02-15T11:12:14;33.13;;;21.73;;
3991;SDS011;2010;48.194;16.394;2023-02-15T11:14:48;36.60;;;21.67;;
3991;SDS011;2010;48.194;16.394;2023-02-15T11:17:24;35.73;;;21.40;;
3991;SDS011;2010;48.194;16.394;2023-02-15T11:20:02;34.33;;;20.53;;
3991;SDS011;2010;48.194;16.394;2023-02-15T11:22:41;35.57;;;22.23;;
3991;SDS011;2010;48.194;16.394;2023-02-15T11:25:14;37.70;;;22.30;;
3991;SDS011;2010;48.194;16.394;2023-02-15T11:27:50;36.30;;;21.60;;
3991;SDS011;2010;48.194;16.394;2023-02-15T11:30:25;32.53;;;20.70;;
3991;SDS011;2010;48.194;16.394;2023-02-15T11:33:00;35.40;;;22.10;;
3991;SDS011;2010;48.194;16.394;2023-02-15T11:35:36;32.90;;;21.30;;
3991;SDS011;2010;48.194;16.394;2023-02-15T11:38:11;34.17;;;20.60;;
3991;SDS011;2010;48.194;16.394;2023-02-15T11:40:54;34.73;;;21.83;;
3991;SDS011;2010;48.194;16.394;2023-02-15T11:43:26;34.70;;;21.30;;
3991;SDS011;2010;48.194;16.394;2023-02-15T11:46:00;34.23;;;20.90;;
3991;SDS011;2010;48.194;16.394;2023-02-15T11:48:39;32.03;;;20.43;;
3991;SDS011;2010;48.194;16.394;2023-02-15T11:51:11;31.30;;;21.03;;
3991;SDS011;2010;48.194;16.394;2023-02-15T11:53:44;34.33;;;21.00;;
3991;SDS011;2010;48.194;16.394;2023-02-15T11:56:23;40.93;;;22.03;;
3991;SDS011;2010;48.194;16.394;2023-02-15T11:59:01;34.17;;;21.10;;
3991;SDS011;2010;48.194;16.394;2023-02-15T12:01:36;36.60;;;20.87;;
3991;SDS011;2010;48.194;16.394;2023-02-15T12:04:15;38.77;;;22.93;;
3991;SDS011;2010;48.194;16.394;2023-02-15T12:06:51;38.73;;;21.37;;
3991;SDS011;2010;48.194;16.394;2023-02-15T12:09:29;41.93;;;21.60;;
3991;SDS011;2010;48.194;16.394;2023-02-15T12:12:24;35.77;;;22.27;;
3991;SDS011;2010;48.194;16.394;2023-02-15T12:14:56;36.60;;;22.00;;
3991;SDS011;2010;48.194;16.394;2023-02-15T12:17:29;38.40;;;22.40;;
3991;SDS011;2010;48.194;16.394;2023-02-15T12:20:06;34.90;;;20.87;;
3991;SDS011;2010;48.194;16.394;2023-02-15T12:22:59;36.53;;;22.00;;
3991;SDS011;2010;48.194;16.394;2023-02-15T12:25:29;37.20;;;22.23;;
3991;SDS011;2010;48.194;16.394;2023-02-15T12:28:03;44.33;;;23.17;;
3991;SDS011;2010;48.194;16.394;2023-02-15T12:30:36;36.70;;;22.50;;
3991;SDS011;2010;48.194;16.394;2023-02-15T12:33:21;35.10;;;21.60;;
3991;SDS011;2010;48.194;16.394;2023-02-15T12:35:57;37.47;;;21.40;;
3991;SDS011;2010;48.194;16.394;2023-02-15T12:38:36;35.03;;;21.20;;
3991;SDS011;2010;48.194;16.394;2023-02-15T12:41:22;35.33;;;22.00;;
3991;SDS011;2010;48.194;16.394;2023-02-15T12:44:03;42.50;;;23.53;;
3991;SDS011;2010;48.194;16.394;2023-02-15T12:46:41;35.40;;;22.20;;
3991;SDS011;2010;48.194;16.394;2023-02-15T12:49:24;39.40;;;21.97;;
3991;SDS011;2010;48.194;16.394;2023-02-15T12:51:56;36.87;;;22.90;;
3991;SDS011;2010;48.194;16.394;2023-02-15T12:54:31;33.67;;;21.63;;
3991;SDS011;2010;48.194;16.394;2023-02-15T12:59:58;42.90;;;23.63;;
3991;SDS011;2010;48.194;16.394;2023-02-15T13:02:35;36.17;;;23.97;;
3991;SDS011;2010;48.194;16.394;2023-02-15T13:05:19;38.30;;;22.77;;
3991;SDS011;2010;48.194;16.394;2023-02-15T13:07:54;35.70;;;22.73;;
3991;SDS011;2010;48.194;16.394;2023-02-15T13:10:26;35.33;;;22.47;;
3991;SDS011;2010;48.194;16.394;2023-02-15T13:12:56;35.07;;;22.10;;
3991;SDS011;2010;48.194;16.394;2023-02-15T13:15:28;40.07;;;23.17;;
3991;SDS011;2010;48.194;16.394;2023-02-15T13:18:00;35.37;;;22.07;;
3991;SDS011;2010;48.194;16.394;2023-02-15T13:20:46;35.40;;;21.43;;
3991;SDS011;2010;48.194;16.394;2023-02-15T13:23:20;36.00;;;21.63;;
3991;SDS011;2010;48.194;16.394;2023-02-15T13:25:59;31.40;;;20.20;;
3991;SDS011;2010;48.194;16.394;2023-02-15T13:28:38;35.60;;;20.97;;
3991;SDS011;2010;48.194;16.394;2023-02-15T13:31:17;44.67;;;24.03;;
3991;SDS011;2010;48.194;16.394;2023-02-15T13:33:58;39.10;;;22.43;;
3991;SDS011;2010;48.194;16.394;2023-02-15T13:36:40;35.97;;;22.13;;
3991;SDS011;2010;48.194;16.394;2023-02-15T13:39:17;36.60;;;22.20;;
3991;SDS011;2010;48.194;16.394;2023-02-15T13:42:00;43.53;;;23.17;;
3991;SDS011;2010;48.194;16.394;2023-02-15T13:44:48;36.97;;;22.90;;
3991;SDS011;2010;48.194;16.394;2023-02-15T13:47:48;34.33;;;20.93;;
3991;SDS011;2010;48.194;16.394;2023-02-15T13:50:29;44.13;;;25.27;;
3991;SDS011;2010;48.194;16.394;2023-02-15T13:56:30;40.00;;;22.37;;
3991;SDS011;2010;48.194;16.394;2023-02-15T13:59:25;38.27;;;23.53;;
3991;SDS011;2010;48.194;16.394;2023-02-15T14:01:58;36.57;;;22.30;;
3991;SDS011;2010;48.194;16.394;2023-02-15T14:04:53;33.10;;;21.60;;
3991;SDS011;2010;48.194;16.394;2023-02-15T14:07:49;38.87;;;22.70;;
3991;SDS011;2010;48.194;16.394;2023-02-15T14:10:34;33.70;;;20.83;;
3991;SDS011;2010;48.194;16.394;2023-02-15T14:16:35;37.30;;;21.43;;
3991;SDS011;2010;48.194;16.394;2023-02-15T14:19:21;36.23;;;21.30;;
3991;SDS011;2010;48.194;16.394;2023-02-15T14:21:58;40.13;;;22.27;;
3991;SDS011;2010;48.194;16.394;2023-02-15T14:24:30;34.17;;;22.07;;
3991;SDS011;2010;48.194;16.394;2023-02-15T14:27:13;31.20;;;20.57;;
3991;SDS011;2010;48.194;16.394;2023-02-15T14:29:53;37.07;;;21.30;;
3991;SDS011;2010;48.194;16.394;2023-02-15T14:32:29;36.63;;;22.37;;
3991;SDS011;2010;48.194;16.394;2023-02-15T14:35:12;34.03;;;21.63;;
3991;SDS011;2010;48.194;16.394;2023-02-15T14:37:46;34.47;;;21.70;;
3991;SDS011;2010;48.194;16.394;2023-02-15T14:40:27;34.83;;;21.80;;
3991;SDS011;2010;48.194;16.394;2023-02-15T14:43:34;39.40;;;21.83;;
3991;SDS011;2010;48.194;16.394;2023-02-15T14:46:23;35.13;;;19.83;;
3991;SDS011;2010;48.194;16.394;2023-02-15T14:49:03;42.93;;;23.03;;
3991;SDS011;2010;48.194;16.394;2023-02-15T14:57:37;39.27;;;24.37;;
3991;SDS011;2010;48.194;16.394;2023-02-15T15:03:17;39.77;;;23.93;;
3991;SDS011;2010;48.194;16.394;2023-02-15T15:05:55;37.33;;;22.37;;
3991;SDS011;2010;48.194;16.394;2023-02-15T15:08:36;40.83;;;24.50;;
3991;SDS011;2010;48.194;16.394;2023-02-15T15:14:37;42.53;;;24.47;;
3991;SDS011;2010;48.194;16.394;2023-02-15T15:23:43;36.10;;;23.20;;
3991;SDS011;2010;48.194;16.394;2023-02-15T15:26:25;35.43;;;22.73;;
3991;SDS011;2010;48.194;16.394;2023-02-15T15:29:09;44.40;;;25.40;;
3991;SDS011;2010;48.194;16.394;2023-02-15T15:31:41;39.97;;;24.87;;
3991;SDS011;2010;48.194;16.394;2023-02-15T15:40:55;39.87;;;24.17;;
3991;SDS011;2010;48.194;16.394;2023-02-15T15:50:12;43.13;;;25.20;;
3991;SDS011;2010;48.194;16.394;2023-02-15T15:52:47;39.07;;;24.57;;
3991;SDS011;2010;48.194;16.394;2023-02-15T15:55:24;45.20;;;26.20;;
3991;SDS011;2010;48.194;16.394;2023-02-15T15:57:58;41.07;;;24.07;;
3991;SDS011;2010;48.194;16.394;2023-02-15T16:00:33;43.00;;;27.07;;
3991;SDS011;2010;48.194;16.394;2023-02-15T16:03:13;44.63;;;25.17;;
3991;SDS011;2010;48.194;16.394;2023-02-15T16:05:43;45.27;;;25.07;;
3991;SDS011;2010;48.194;16.394;2023-02-15T16:08:15;42.57;;;25.33;;
3991;SDS011;2010;48.194;16.394;2023-02-15T16:11:21;39.33;;;24.80;;
3991;SDS011;2010;48.194;16.394;2023-02-15T16:13:56;44.97;;;25.70;;
3991;SDS011;2010;48.194;16.394;2023-02-15T16:16:31;47.23;;;27.47;;
3991;SDS011;2010;48.194;16.394;2023-02-15T16:19:15;46.57;;;25.73;;
3991;SDS011;2010;48.194;16.394;2023-02-15T16:22:00;45.27;;;24.93;;
3991;SDS011;2010;48.194;16.394;2023-02-15T16:24:44;41.57;;;25.07;;
3991;SDS011;2010;48.194;16.394;2023-02-15T16:27:46;43.67;;;25.87;;
3991;SDS011;2010;48.194;16.394;2023-02-15T16:30:29;45.07;;;26.03;;
3991;SDS011;2010;48.194;16.394;2023-02-15T16:33:12;41.13;;;25.03;;
3991;SDS011;2010;48.194;16.394;2023-02-15T16:35:55;47.40;;;27.73;;